sensor_id;sensor_type;location;lat;lon;timestamp;pressure;altitude;pressure_sealevel;temperature;humidity
44531;BME280;30240;47.418;0.700;2023-06-14T00:01:44;99892.578125;;;19.84;61.12
44531;BME280;30240;47.418;0.700;2023-06-14T00:04:09;99898.388671875;;;19.75;61.51
44531;BME280;30240;47.418;0.700;2023-06-14T00:06:34;99898.388671875;;;19.75;61.51
44531;BME280;30240;47.418;0.700;2023-06-14T00:08:59;99893.115234375;;;19.66;61.82
44531;BME280;30240;47.418;0.700;2023-06-14T00:11:24;99896.20361328125;;;19.61;61.84
44531;BME280;30240;47.418;0.700;2023-06-14T00:13:49;99888.39721679688;;;19.59;61.7
44531;BME280;30240;47.418;0.700;2023-06-14T00:16:14;99891.51611328125;;;19.47;62.28
44531;BME280;30240;47.418;0.700;2023-06-14T00:18:39;99891.51611328125;;;19.47;62.28
44531;BME280;30240;47.418;0.700;2023-06-14T00:21:04;99889.03198242188;;;19.36;62.56
44531;BME280;30240;47.418;0.700;2023-06-14T00:23:29;99886.26708984375;;;19.23;63.05
44531;BME280;30240;47.418;0.700;2023-06-14T00:25:53;99886.35864257812;;;19.12;63.28
44531;BME280;30240;47.418;0.700;2023-06-14T00:28:18;99890.00244140625;;;19.05;63.51
44531;BME280;30240;47.418;0.700;2023-06-14T00:30:44;99890.00244140625;;;19.05;63.51
44531;BME280;30240;47.418;0.700;2023-06-14T00:33:08;99891.455078125;;;19.05;63.3
44531;BME280;30240;47.418;0.700;2023-06-14T00:35:34;99889.09301757812;;;18.98;63.41
44531;BME280;30240;47.418;0.700;2023-06-14T00:37:58;99895.59326171875;;;19.0;63.44
44531;BME280;30240;47.418;0.700;2023-06-14T00:40:23;99893.1396484375;;;18.84;63.84
44531;BME280;30240;47.418;0.700;2023-06-14T00:42:48;99893.1396484375;;;18.84;63.84
44531;BME280;30240;47.418;0.700;2023-06-14T00:45:14;99896.64306640625;;;18.63;64.24
44531;BME280;30240;47.418;0.700;2023-06-14T00:47:40;99891.88842773438;;;18.63;64.29
44531;BME280;30240;47.418;0.700;2023-06-14T00:50:06;99891.68701171875;;;18.57;64.5
44531;BME280;30240;47.418;0.700;2023-06-14T00:52:34;99896.6064453125;;;18.44;64.93
44531;BME280;30240;47.418;0.700;2023-06-14T00:54:58;99897.3876953125;;;18.31;65.25
44531;BME280;30240;47.418;0.700;2023-06-14T00:57:19;99897.3876953125;;;18.31;65.25
44531;BME280;30240;47.418;0.700;2023-06-14T00:59:45;99896.6552734375;;;18.32;65.1
44531;BME280;30240;47.418;0.700;2023-06-14T01:02:09;99891.38793945312;;;18.32;65.17
44531;BME280;30240;47.418;0.700;2023-06-14T01:04:34;99889.11743164062;;;18.18;65.38
44531;BME280;30240;47.418;0.700;2023-06-14T01:07:01;99889.599609375;;;18.07;65.37
44531;BME280;30240;47.418;0.700;2023-06-14T01:09:27;99889.599609375;;;18.07;65.37
44531;BME280;30240;47.418;0.700;2023-06-14T01:11:54;99887.04833984375;;;18.1;65.38
44531;BME280;30240;47.418;0.700;2023-06-14T01:14:14;99889.50805664062;;;18.11;65.52
44531;BME280;30240;47.418;0.700;2023-06-14T01:16:39;99890.283203125;;;18.0;65.91
44531;BME280;30240;47.418;0.700;2023-06-14T01:19:04;99892.24243164062;;;18.01;66.09
44531;BME280;30240;47.418;0.700;2023-06-14T01:21:29;99892.24243164062;;;18.01;66.09
44531;BME280;30240;47.418;0.700;2023-06-14T01:23:54;99892.7490234375;;;17.97;66.23
44531;BME280;30240;47.418;0.700;2023-06-14T01:26:19;99891.27197265625;;;17.9;66.38
44531;BME280;30240;47.418;0.700;2023-06-14T01:28:44;99887.841796875;;;17.93;66.34
44531;BME280;30240;47.418;0.700;2023-06-14T01:31:08;99889.19677734375;;;17.87;66.56
44531;BME280;30240;47.418;0.700;2023-06-14T01:33:35;99889.19677734375;;;17.87;66.56
44531;BME280;30240;47.418;0.700;2023-06-14T01:35:59;99891.74194335938;;;17.86;66.64
44531;BME280;30240;47.418;0.700;2023-06-14T01:38:25;99892.87719726562;;;17.9;66.66
44531;BME280;30240;47.418;0.700;2023-06-14T01:40:49;99897.35107421875;;;17.77;67.05
44531;BME280;30240;47.418;0.700;2023-06-14T01:43:14;99895.97778320312;;;17.75;67.38
44531;BME280;30240;47.418;0.700;2023-06-14T01:45:40;99895.97778320312;;;17.75;67.38
44531;BME280;30240;47.418;0.700;2023-06-14T01:48:04;99898.38256835938;;;17.72;67.31
44531;BME280;30240;47.418;0.700;2023-06-14T01:50:29;99897.03369140625;;;17.69;67.45
44531;BME280;30240;47.418;0.700;2023-06-14T01:52:54;99902.18505859375;;;17.62;67.86
44531;BME280;30240;47.418;0.700;2023-06-14T01:55:19;99904.93774414062;;;17.58;67.86
44531;BME280;30240;47.418;0.700;2023-06-14T01:57:43;99904.93774414062;;;17.58;67.86
44531;BME280;30240;47.418;0.700;2023-06-14T02:00:09;99907.14111328125;;;17.51;68.07
44531;BME280;30240;47.418;0.700;2023-06-14T02:02:33;99902.4658203125;;;17.49;68.22
44531;BME280;30240;47.418;0.700;2023-06-14T02:04:58;99908.26416015625;;;17.46;68.3
44531;BME280;30240;47.418;0.700;2023-06-14T02:07:23;99909.00268554688;;;17.48;68.37
44531;BME280;30240;47.418;0.700;2023-06-14T02:09:49;99909.00268554688;;;17.48;68.37
44531;BME280;30240;47.418;0.700;2023-06-14T02:12:13;99916.32690429688;;;17.34;68.71
44531;BME280;30240;47.418;0.700;2023-06-14T02:14:39;99916.357421875;;;17.37;69.02
44531;BME280;30240;47.418;0.700;2023-06-14T02:17:04;99913.75122070312;;;17.37;69.07
44531;BME280;30240;47.418;0.700;2023-06-14T02:19:28;99918.07861328125;;;17.27;69.42
44531;BME280;30240;47.418;0.700;2023-06-14T02:21:54;99918.07861328125;;;17.27;69.42
44531;BME280;30240;47.418;0.700;2023-06-14T02:24:18;99915.04516601562;;;17.26;69.68
44531;BME280;30240;47.418;0.700;2023-06-14T02:26:43;99915.4541015625;;;17.1;70.04
44531;BME280;30240;47.418;0.700;2023-06-14T02:29:09;99916.10107421875;;;17.14;70.41
44531;BME280;30240;47.418;0.700;2023-06-14T02:31:34;99920.00122070312;;;17.06;71.03
44531;BME280;30240;47.418;0.700;2023-06-14T02:33:58;99924.4873046875;;;16.99;71.6
44531;BME280;30240;47.418;0.700;2023-06-14T02:36:23;99924.4873046875;;;16.99;71.6
44531;BME280;30240;47.418;0.700;2023-06-14T02:38:48;99923.90747070312;;;16.96;72.0
44531;BME280;30240;47.418;0.700;2023-06-14T02:41:14;99924.31030273438;;;16.82;72.69
44531;BME280;30240;47.418;0.700;2023-06-14T02:43:38;99927.03247070312;;;16.75;72.83
44531;BME280;30240;47.418;0.700;2023-06-14T02:46:04;99930.01708984375;;;16.64;73.18
44531;BME280;30240;47.418;0.700;2023-06-14T02:48:29;99930.01708984375;;;16.64;73.18
44531;BME280;30240;47.418;0.700;2023-06-14T02:50:53;99931.71997070312;;;16.68;73.14
44531;BME280;30240;47.418;0.700;2023-06-14T02:53:18;99933.7646484375;;;16.75;72.76
44531;BME280;30240;47.418;0.700;2023-06-14T02:55:43;99935.8154296875;;;16.71;72.95
44531;BME280;30240;47.418;0.700;2023-06-14T02:58:09;99934.34448242188;;;16.72;72.69
44531;BME280;30240;47.418;0.700;2023-06-14T03:00:33;99934.34448242188;;;16.72;72.69
44531;BME280;30240;47.418;0.700;2023-06-14T03:02:58;99931.884765625;;;16.71;72.7
44531;BME280;30240;47.418;0.700;2023-06-14T03:05:23;99935.90698242188;;;16.69;72.81
44531;BME280;30240;47.418;0.700;2023-06-14T03:07:49;99931.95190429688;;;16.64;72.88
44531;BME280;30240;47.418;0.700;2023-06-14T03:10:13;99930.2001953125;;;16.69;72.84
44531;BME280;30240;47.418;0.700;2023-06-14T03:12:38;99930.2001953125;;;16.69;72.84
44531;BME280;30240;47.418;0.700;2023-06-14T03:15:04;99931.07299804688;;;16.61;72.86
44531;BME280;30240;47.418;0.700;2023-06-14T03:17:28;99938.47045898438;;;16.58;73.12
44531;BME280;30240;47.418;0.700;2023-06-14T03:19:53;99941.04614257812;;;16.5;73.22
44531;BME280;30240;47.418;0.700;2023-06-14T03:22:18;99938.818359375;;;16.48;73.1
44531;BME280;30240;47.418;0.700;2023-06-14T03:24:43;99938.818359375;;;16.48;73.1
44531;BME280;30240;47.418;0.700;2023-06-14T03:27:08;99942.32177734375;;;16.54;73.22
44531;BME280;30240;47.418;0.700;2023-06-14T03:29:33;99941.09497070312;;;16.58;72.65
44531;BME280;30240;47.418;0.700;2023-06-14T03:32:00;99944.3603515625;;;16.5;72.97
44531;BME280;30240;47.418;0.700;2023-06-14T03:34:23;99944.9951171875;;;16.48;73.03
44531;BME280;30240;47.418;0.700;2023-06-14T03:36:48;99944.9951171875;;;16.48;73.03
44531;BME280;30240;47.418;0.700;2023-06-14T03:39:13;99950.4638671875;;;16.5;72.92
44531;BME280;30240;47.418;0.700;2023-06-14T03:41:38;99948.72436523438;;;16.55;72.51
44531;BME280;30240;47.418;0.700;2023-06-14T03:44:04;99955.96923828125;;;16.57;72.62
44531;BME280;30240;47.418;0.700;2023-06-14T03:46:28;99953.2958984375;;;16.54;72.57
44531;BME280;30240;47.418;0.700;2023-06-14T03:48:53;99953.2958984375;;;16.54;72.57
44531;BME280;30240;47.418;0.700;2023-06-14T03:51:18;99960.60791015625;;;16.5;72.34
44531;BME280;30240;47.418;0.700;2023-06-14T03:53:43;99962.98217773438;;;16.51;72.53
44531;BME280;30240;47.418;0.700;2023-06-14T03:56:08;99961.04125976562;;;16.4;72.85
44531;BME280;30240;47.418;0.700;2023-06-14T03:58:33;99960.85815429688;;;16.33;72.83
44531;BME280;30240;47.418;0.700;2023-06-14T04:00:58;99960.85815429688;;;16.33;72.83
44531;BME280;30240;47.418;0.700;2023-06-14T04:03:23;99956.95190429688;;;16.31;72.91
44531;BME280;30240;47.418;0.700;2023-06-14T04:05:48;99962.95166015625;;;16.41;72.53
44531;BME280;30240;47.418;0.700;2023-06-14T04:08:13;99957.38525390625;;;16.41;72.38
44531;BME280;30240;47.418;0.700;2023-06-14T04:10:38;99960.29663085938;;;16.31;72.69
44531;BME280;30240;47.418;0.700;2023-06-14T04:13:03;99962.79907226562;;;16.4;72.57
44531;BME280;30240;47.418;0.700;2023-06-14T04:15:28;99962.79907226562;;;16.4;72.57
44531;BME280;30240;47.418;0.700;2023-06-14T04:17:54;99957.50122070312;;;16.38;72.5
44531;BME280;30240;47.418;0.700;2023-06-14T04:20:18;99953.14331054688;;;16.33;72.5
44531;BME280;30240;47.418;0.700;2023-06-14T04:22:43;99958.3984375;;;16.31;72.78
44531;BME280;30240;47.418;0.700;2023-06-14T04:25:08;99970.06225585938;;;16.4;72.37
44531;BME280;30240;47.418;0.700;2023-06-14T04:27:33;99970.06225585938;;;16.4;72.37
44531;BME280;30240;47.418;0.700;2023-06-14T04:29:58;99972.12524414062;;;16.43;72.48
44531;BME280;30240;47.418;0.700;2023-06-14T04:32:23;99972.81494140625;;;16.38;72.21
44531;BME280;30240;47.418;0.700;2023-06-14T04:34:48;99979.1748046875;;;16.52;71.85
44531;BME280;30240;47.418;0.700;2023-06-14T04:37:14;99976.84326171875;;;16.59;71.85
44531;BME280;30240;47.418;0.700;2023-06-14T04:39:38;99976.84326171875;;;16.59;71.85
44531;BME280;30240;47.418;0.700;2023-06-14T04:42:04;99980.76782226562;;;16.62;71.4
44531;BME280;30240;47.418;0.700;2023-06-14T04:44:28;99983.75854492188;;;16.72;71.07
44531;BME280;30240;47.418;0.700;2023-06-14T04:46:53;99983.50219726562;;;16.83;70.7
44531;BME280;30240;47.418;0.700;2023-06-14T04:49:19;99979.99267578125;;;16.85;70.49
44531;BME280;30240;47.418;0.700;2023-06-14T04:51:45;99979.99267578125;;;16.85;70.49
44531;BME280;30240;47.418;0.700;2023-06-14T04:54:08;99983.11157226562;;;16.86;70.43
44531;BME280;30240;47.418;0.700;2023-06-14T04:56:33;99986.376953125;;;16.89;70.23
44531;BME280;30240;47.418;0.700;2023-06-14T04:58:58;99992.32177734375;;;16.97;70.12
44531;BME280;30240;47.418;0.700;2023-06-14T05:01:23;99989.111328125;;;16.9;69.92
44531;BME280;30240;47.418;0.700;2023-06-14T05:03:49;99989.111328125;;;16.9;69.92
44531;BME280;30240;47.418;0.700;2023-06-14T05:06:13;99996.96044921875;;;16.93;70.08
44531;BME280;30240;47.418;0.700;2023-06-14T05:08:38;99998.583984375;;;17.11;70.12
44531;BME280;30240;47.418;0.700;2023-06-14T05:11:04;99991.8701171875;;;17.26;69.43
44531;BME280;30240;47.418;0.700;2023-06-14T05:13:28;100000.1220703125;;;17.2;69.38
44531;BME280;30240;47.418;0.700;2023-06-14T05:15:53;100000.1220703125;;;17.2;69.38
44531;BME280;30240;47.418;0.700;2023-06-14T05:18:19;99996.25854492188;;;17.48;68.98
44531;BME280;30240;47.418;0.700;2023-06-14T05:20:43;100004.1748046875;;;17.53;68.34
44531;BME280;30240;47.418;0.700;2023-06-14T05:23:09;100004.37622070312;;;17.56;68.34
44531;BME280;30240;47.418;0.700;2023-06-14T05:25:34;100008.7890625;;;17.73;67.54
44531;BME280;30240;47.418;0.700;2023-06-14T05:27:58;100008.7890625;;;17.73;67.54
44531;BME280;30240;47.418;0.700;2023-06-14T05:30:24;100014.22729492188;;;17.77;67.31
44531;BME280;30240;47.418;0.700;2023-06-14T05:32:48;100019.95239257812;;;17.87;67.38
44531;BME280;30240;47.418;0.700;2023-06-14T05:35:14;100019.4091796875;;;17.94;67.18
44531;BME280;30240;47.418;0.700;2023-06-14T05:37:39;100019.873046875;;;18.1;66.97
44531;BME280;30240;47.418;0.700;2023-06-14T05:40:04;100023.27270507812;;;18.22;66.82
44531;BME280;30240;47.418;0.700;2023-06-14T05:42:29;100023.27270507812;;;18.22;66.82
44531;BME280;30240;47.418;0.700;2023-06-14T05:44:54;100031.8115234375;;;18.29;67.17
44531;BME280;30240;47.418;0.700;2023-06-14T05:47:18;100030.63354492188;;;18.53;66.18
44531;BME280;30240;47.418;0.700;2023-06-14T05:49:43;100033.59375;;;18.57;66.17
44531;BME280;30240;47.418;0.700;2023-06-14T05:52:09;100038.88549804688;;;18.62;65.91
44531;BME280;30240;47.418;0.700;2023-06-14T05:54:33;100038.88549804688;;;18.62;65.91
44531;BME280;30240;47.418;0.700;2023-06-14T05:56:58;100037.939453125;;;18.55;64.9
44531;BME280;30240;47.418;0.700;2023-06-14T05:59:23;100037.07885742188;;;18.36;65.7
44531;BME280;30240;47.418;0.700;2023-06-14T06:01:48;100042.90771484375;;;18.86;65.45
44531;BME280;30240;47.418;0.700;2023-06-14T06:04:13;100039.68505859375;;;19.26;63.86
44531;BME280;30240;47.418;0.700;2023-06-14T06:06:38;100039.68505859375;;;19.26;63.86
44531;BME280;30240;47.418;0.700;2023-06-14T06:09:03;100042.98706054688;;;19.57;62.98
44531;BME280;30240;47.418;0.700;2023-06-14T06:11:28;100044.84252929688;;;19.96;61.9
44531;BME280;30240;47.418;0.700;2023-06-14T06:13:53;100047.91259765625;;;20.81;60.2
44531;BME280;30240;47.418;0.700;2023-06-14T06:16:18;100048.486328125;;;21.09;58.0
44531;BME280;30240;47.418;0.700;2023-06-14T06:18:44;100048.486328125;;;21.09;58.0
44531;BME280;30240;47.418;0.700;2023-06-14T06:21:08;100048.21166992188;;;21.53;57.43
44531;BME280;30240;47.418;0.700;2023-06-14T06:23:33;100050.14038085938;;;21.59;56.55
44531;BME280;30240;47.418;0.700;2023-06-14T06:25:58;100054.4189453125;;;21.12;57.16
44531;BME280;30240;47.418;0.700;2023-06-14T06:28:24;100054.31518554688;;;21.14;57.28
44531;BME280;30240;47.418;0.700;2023-06-14T06:30:48;100054.31518554688;;;21.14;57.28
44531;BME280;30240;47.418;0.700;2023-06-14T06:33:13;100056.89086914062;;;21.31;57.01
44531;BME280;30240;47.418;0.700;2023-06-14T06:35:38;100056.34155273438;;;21.53;57.04
44531;BME280;30240;47.418;0.700;2023-06-14T06:38:03;100054.1748046875;;;21.59;56.31
44531;BME280;30240;47.418;0.700;2023-06-14T06:40:28;100054.82177734375;;;21.51;56.54
44531;BME280;30240;47.418;0.700;2023-06-14T06:42:53;100054.82177734375;;;21.51;56.54
44531;BME280;30240;47.418;0.700;2023-06-14T06:45:18;100056.9091796875;;;21.61;55.84
44531;BME280;30240;47.418;0.700;2023-06-14T06:47:43;100057.95288085938;;;21.86;56.31
44531;BME280;30240;47.418;0.700;2023-06-14T06:50:09;100068.798828125;;;22.18;54.75
44531;BME280;30240;47.418;0.700;2023-06-14T06:52:34;100063.58032226562;;;22.37;54.7
44531;BME280;30240;47.418;0.700;2023-06-14T06:54:58;100063.58032226562;;;22.37;54.7
44531;BME280;30240;47.418;0.700;2023-06-14T06:57:23;100070.36743164062;;;22.45;52.89
44531;BME280;30240;47.418;0.700;2023-06-14T06:59:48;100069.7509765625;;;22.75;53.19
44531;BME280;30240;47.418;0.700;2023-06-14T07:02:13;100066.80297851562;;;22.89;52.54
44531;BME280;30240;47.418;0.700;2023-06-14T07:04:38;100066.58325195312;;;23.15;52.98
44531;BME280;30240;47.418;0.700;2023-06-14T07:07:03;100066.58325195312;;;23.15;52.98
44531;BME280;30240;47.418;0.700;2023-06-14T07:09:28;100073.88916015625;;;23.22;52.97
44531;BME280;30240;47.418;0.700;2023-06-14T07:11:53;100070.361328125;;;23.27;52.36
44531;BME280;30240;47.418;0.700;2023-06-14T07:14:18;100071.50268554688;;;23.55;50.82
44531;BME280;30240;47.418;0.700;2023-06-14T07:16:43;100072.49755859375;;;23.62;51.13
44531;BME280;30240;47.418;0.700;2023-06-14T07:19:09;100076.06201171875;;;23.73;50.1
44531;BME280;30240;47.418;0.700;2023-06-14T07:21:33;100076.06201171875;;;23.73;50.1
44531;BME280;30240;47.418;0.700;2023-06-14T07:23:58;100078.96728515625;;;24.03;49.78
44531;BME280;30240;47.418;0.700;2023-06-14T07:26:23;100084.53369140625;;;23.77;50.26
44531;BME280;30240;47.418;0.700;2023-06-14T07:28:49;100085.24780273438;;;24.18;49.9
44531;BME280;30240;47.418;0.700;2023-06-14T07:31:14;100085.24780273438;;;24.43;49.14
44531;BME280;30240;47.418;0.700;2023-06-14T07:33:40;100085.24780273438;;;24.43;49.14
44531;BME280;30240;47.418;0.700;2023-06-14T07:36:04;100089.12353515625;;;24.49;49.61
44531;BME280;30240;47.418;0.700;2023-06-14T07:38:28;100091.29638671875;;;24.57;47.56
44531;BME280;30240;47.418;0.700;2023-06-14T07:40:53;100086.8408203125;;;24.9;47.07
44531;BME280;30240;47.418;0.700;2023-06-14T07:43:18;100093.3837890625;;;25.03;46.41
44531;BME280;30240;47.418;0.700;2023-06-14T07:45:44;100093.3837890625;;;25.03;46.41
44531;BME280;30240;47.418;0.700;2023-06-14T07:48:09;100090.73486328125;;;25.46;45.54
44531;BME280;30240;47.418;0.700;2023-06-14T07:50:33;100091.59545898438;;;25.54;45.55
44531;BME280;30240;47.418;0.700;2023-06-14T07:52:58;100090.95458984375;;;25.82;45.01
44531;BME280;30240;47.418;0.700;2023-06-14T07:55:23;100093.1640625;;;25.84;43.47
44531;BME280;30240;47.418;0.700;2023-06-14T07:57:48;100093.1640625;;;25.84;43.47
44531;BME280;30240;47.418;0.700;2023-06-14T08:00:14;100092.44384765625;;;25.96;44.39
44531;BME280;30240;47.418;0.700;2023-06-14T08:02:38;100093.26782226562;;;26.06;44.68
44531;BME280;30240;47.418;0.700;2023-06-14T08:05:04;100090.234375;;;26.61;43.44
44531;BME280;30240;47.418;0.700;2023-06-14T08:07:28;100084.74731445312;;;27.2;41.4
44531;BME280;30240;47.418;0.700;2023-06-14T08:09:53;100084.74731445312;;;27.2;41.4
44531;BME280;30240;47.418;0.700;2023-06-14T08:12:18;100089.013671875;;;27.62;40.91
44531;BME280;30240;47.418;0.700;2023-06-14T08:14:43;100086.71875;;;26.35;41.79
44531;BME280;30240;47.418;0.700;2023-06-14T08:17:08;100085.40649414062;;;25.94;43.59
44531;BME280;30240;47.418;0.700;2023-06-14T08:19:34;100086.77978515625;;;26.48;42.13
44531;BME280;30240;47.418;0.700;2023-06-14T08:21:58;100086.77978515625;;;26.48;42.13
44531;BME280;30240;47.418;0.700;2023-06-14T08:24:24;100082.89184570312;;;27.58;41.7
44531;BME280;30240;47.418;0.700;2023-06-14T08:26:48;100084.99145507812;;;28.55;39.08
44531;BME280;30240;47.418;0.700;2023-06-14T08:29:13;100080.50537109375;;;29.44;37.05
44531;BME280;30240;47.418;0.700;2023-06-14T08:31:38;100083.19702148438;;;28.72;36.39
44531;BME280;30240;47.418;0.700;2023-06-14T08:34:03;100083.19702148438;;;28.72;36.39
44531;BME280;30240;47.418;0.700;2023-06-14T08:36:28;100078.18603515625;;;29.76;36.09
44531;BME280;30240;47.418;0.700;2023-06-14T08:38:53;100081.58569335938;;;30.86;34.75
44531;BME280;30240;47.418;0.700;2023-06-14T08:41:21;100080.30395507812;;;30.99;32.72
44531;BME280;30240;47.418;0.700;2023-06-14T08:43:44;100082.275390625;;;31.25;32.5
44531;BME280;30240;47.418;0.700;2023-06-14T08:46:09;100082.5927734375;;;31.61;31.7
44531;BME280;30240;47.418;0.700;2023-06-14T08:48:34;100082.5927734375;;;31.61;31.7
44531;BME280;30240;47.418;0.700;2023-06-14T08:50:59;100087.59155273438;;;30.42;31.86
44531;BME280;30240;47.418;0.700;2023-06-14T08:53:24;100082.00073242188;;;31.36;30.93
44531;BME280;30240;47.418;0.700;2023-06-14T08:55:48;100082.34252929688;;;30.92;31.63
44531;BME280;30240;47.418;0.700;2023-06-14T08:58:13;100080.79833984375;;;30.95;31.42
44531;BME280;30240;47.418;0.700;2023-06-14T09:00:39;100080.79833984375;;;30.95;31.42
44531;BME280;30240;47.418;0.700;2023-06-14T09:03:03;100080.16357421875;;;32.36;30.91
44531;BME280;30240;47.418;0.700;2023-06-14T09:05:28;100084.57641601562;;;32.78;27.74
44531;BME280;30240;47.418;0.700;2023-06-14T09:07:54;100081.40869140625;;;31.85;29.15
44531;BME280;30240;47.418;0.700;2023-06-14T09:10:20;100081.30493164062;;;32.52;27.9
44531;BME280;30240;47.418;0.700;2023-06-14T09:12:44;100081.30493164062;;;32.52;27.9
44531;BME280;30240;47.418;0.700;2023-06-14T09:15:09;100086.33422851562;;;32.95;27.78
44531;BME280;30240;47.418;0.700;2023-06-14T09:17:34;100087.451171875;;;33.85;26.57
44531;BME280;30240;47.418;0.700;2023-06-14T09:19:59;100087.92724609375;;;32.96;24.36
44531;BME280;30240;47.418;0.700;2023-06-14T09:22:24;100087.34130859375;;;32.49;26.05
44531;BME280;30240;47.418;0.700;2023-06-14T09:24:49;100087.34130859375;;;32.49;26.05
44531;BME280;30240;47.418;0.700;2023-06-14T09:27:14;100085.62622070312;;;32.85;26.99
44531;BME280;30240;47.418;0.700;2023-06-14T09:29:39;100089.51416015625;;;33.68;25.25
44531;BME280;30240;47.418;0.700;2023-06-14T09:32:04;100088.36669921875;;;33.89;25.57
44531;BME280;30240;47.418;0.700;2023-06-14T09:34:29;100091.26586914062;;;35.06;24.46
44531;BME280;30240;47.418;0.700;2023-06-14T09:36:54;100091.26586914062;;;35.06;24.46
44531;BME280;30240;47.418;0.700;2023-06-14T09:39:19;100095.54443359375;;;35.83;23.69
44531;BME280;30240;47.418;0.700;2023-06-14T09:41:44;100088.75122070312;;;31.57;27.21
44531;BME280;30240;47.418;0.700;2023-06-14T09:44:10;100093.65844726562;;;33.34;27.15
44531;BME280;30240;47.418;0.700;2023-06-14T09:46:34;100090.8935546875;;;33.09;26.23
44531;BME280;30240;47.418;0.700;2023-06-14T09:48:59;100090.8935546875;;;33.09;26.23
44531;BME280;30240;47.418;0.700;2023-06-14T09:51:24;100097.93701171875;;;33.96;26.24
44531;BME280;30240;47.418;0.700;2023-06-14T09:53:49;100089.3310546875;;;32.96;26.16
44531;BME280;30240;47.418;0.700;2023-06-14T09:56:16;100088.00048828125;;;30.33;28.99
44531;BME280;30240;47.418;0.700;2023-06-14T09:58:39;100091.2841796875;;;29.35;30.28
44531;BME280;30240;47.418;0.700;2023-06-14T10:01:05;100091.2841796875;;;29.35;30.28
44531;BME280;30240;47.418;0.700;2023-06-14T10:03:29;100093.15795898438;;;31.7;27.97
44531;BME280;30240;47.418;0.700;2023-06-14T10:05:55;100091.796875;;;34.08;26.4
44531;BME280;30240;47.418;0.700;2023-06-14T10:08:21;100094.07958984375;;;35.44;24.56
44531;BME280;30240;47.418;0.700;2023-06-14T10:10:44;100092.20581054688;;;35.43;24.41
44531;BME280;30240;47.418;0.700;2023-06-14T10:13:09;100101.87377929688;;;36.11;25.15
44531;BME280;30240;47.418;0.700;2023-06-14T10:15:39;100101.87377929688;;;36.11;25.15
44531;BME280;30240;47.418;0.700;2023-06-14T10:18:01;100100.341796875;;;35.76;23.82
44531;BME280;30240;47.418;0.700;2023-06-14T10:20:28;100099.74975585938;;;35.89;23.54
44531;BME280;30240;47.418;0.700;2023-06-14T10:22:50;100099.79858398438;;;32.63;26.37
44531;BME280;30240;47.418;0.700;2023-06-14T10:25:27;100101.17797851562;;;34.99;24.41
44531;BME280;30240;47.418;0.700;2023-06-14T10:27:38;100101.17797851562;;;34.99;24.41
44531;BME280;30240;47.418;0.700;2023-06-14T10:30:06;100096.78344726562;;;35.43;24.05
44531;BME280;30240;47.418;0.700;2023-06-14T10:32:28;100090.12451171875;;;35.88;24.32
44531;BME280;30240;47.418;0.700;2023-06-14T10:34:55;100090.03295898438;;;33.94;26.38
44531;BME280;30240;47.418;0.700;2023-06-14T10:37:19;100098.02856445312;;;33.64;26.14
44531;BME280;30240;47.418;0.700;2023-06-14T10:39:45;100098.02856445312;;;33.64;26.14
44531;BME280;30240;47.418;0.700;2023-06-14T10:42:09;100095.263671875;;;35.21;25.03
44531;BME280;30240;47.418;0.700;2023-06-14T10:44:38;100094.78149414062;;;36.58;23.62
44531;BME280;30240;47.418;0.700;2023-06-14T10:46:59;100098.828125;;;31.78;27.38
44531;BME280;30240;47.418;0.700;2023-06-14T10:49:38;100094.39086914062;;;34.86;26.19
44531;BME280;30240;47.418;0.700;2023-06-14T10:51:50;100094.39086914062;;;34.86;26.19
44531;BME280;30240;47.418;0.700;2023-06-14T10:54:14;100096.34399414062;;;35.37;24.67
44531;BME280;30240;47.418;0.700;2023-06-14T10:56:45;100096.7041015625;;;35.75;24.1
44531;BME280;30240;47.418;0.700;2023-06-14T10:59:03;100094.091796875;;;36.02;23.24
44531;BME280;30240;47.418;0.700;2023-06-14T11:01:32;100098.98681640625;;;35.23;23.29
44531;BME280;30240;47.418;0.700;2023-06-14T11:03:53;100098.98681640625;;;35.23;23.29
44531;BME280;30240;47.418;0.700;2023-06-14T11:06:21;100097.06420898438;;;34.48;23.9
44531;BME280;30240;47.418;0.700;2023-06-14T11:09:24;100089.05639648438;;;35.43;24.21
44531;BME280;30240;47.418;0.700;2023-06-14T11:09:41;100089.05639648438;;;35.43;24.21
44531;BME280;30240;47.418;0.700;2023-06-14T11:11:09;100088.17138671875;;;34.93;24.49
44531;BME280;30240;47.418;0.700;2023-06-14T11:13:36;100090.54565429688;;;36.17;23.08
44531;BME280;30240;47.418;0.700;2023-06-14T11:15:59;100090.54565429688;;;36.17;23.08
44531;BME280;30240;47.418;0.700;2023-06-14T11:18:24;100085.07690429688;;;37.23;21.15
44531;BME280;30240;47.418;0.700;2023-06-14T11:20:48;100091.09497070312;;;35.78;22.56
44531;BME280;30240;47.418;0.700;2023-06-14T11:23:13;100087.158203125;;;35.72;23.77
44531;BME280;30240;47.418;0.700;2023-06-14T11:25:38;100075.20141601562;;;37.61;21.29